createdAt,value
2023-01-29T00:02:03.988Z,101871.50
2023-01-29T00:04:33.518Z,101867.28
2023-01-29T00:07:01.632Z,101871.66
2023-01-29T00:09:29.932Z,101875.88
2023-01-29T00:11:58.017Z,101876.84
2023-01-29T00:14:27.430Z,101872.44
2023-01-29T00:16:55.938Z,101869.69
2023-01-29T00:19:24.018Z,101873.91
2023-01-29T00:21:53.639Z,101879.53
2023-01-29T00:24:22.694Z,101881.06
2023-01-29T00:26:51.185Z,101891.59
2023-01-29T00:29:19.836Z,101888.81
2023-01-29T00:31:48.234Z,101886.81
2023-01-29T00:34:17.337Z,101891.41
2023-01-29T00:36:46.454Z,101886.72
2023-01-29T00:39:15.955Z,101897.44
2023-01-29T00:42:01.475Z,101896.41
2023-01-29T00:44:47.180Z,101889.50
2023-01-29T00:47:32.056Z,101877.09
2023-01-29T00:50:00.176Z,101877.34
2023-01-29T00:52:28.742Z,101870.28
2023-01-29T00:54:59.906Z,101877.44
2023-01-29T00:57:29.958Z,101873.19
2023-01-29T00:59:58.068Z,101863.31
2023-01-29T01:02:43.796Z,101863.97
2023-01-29T01:05:14.298Z,101856.75
2023-01-29T01:07:42.930Z,101859.53
2023-01-29T01:10:22.552Z,101857.25
2023-01-29T01:12:52.403Z,101849.84
2023-01-29T01:15:21.044Z,101840.38
2023-01-29T01:17:50.091Z,101841.50
2023-01-29T01:20:18.821Z,101841.59
2023-01-29T01:22:47.066Z,101839.19
2023-01-29T01:25:17.715Z,101837.28
2023-01-29T01:27:45.856Z,101835.72
2023-01-29T01:30:15.679Z,101835.53
2023-01-29T01:32:44.694Z,101831.00
2023-01-29T01:35:13.848Z,101823.66
2023-01-29T01:37:42.606Z,101827.47
2023-01-29T01:40:18.356Z,101828.31
2023-01-29T01:42:50.743Z,101830.81
2023-01-29T01:45:20.890Z,101831.75
2023-01-29T01:47:50.416Z,101831.56
2023-01-29T01:50:21.975Z,101834.25
2023-01-29T01:52:52.802Z,101836.91
2023-01-29T01:55:23.073Z,101836.06
2023-01-29T01:57:54.348Z,101838.47
2023-01-29T02:00:23.379Z,101834.84
2023-01-29T02:03:09.077Z,101845.44
2023-01-29T02:05:55.741Z,101835.66
2023-01-29T02:08:43.964Z,101841.00
2023-01-29T02:11:12.261Z,101840.72
2023-01-29T02:13:42.891Z,101833.56
2023-01-29T02:16:11.018Z,101830.03
2023-01-29T02:18:39.581Z,101829.34
2023-01-29T02:21:15.015Z,101829.34
2023-01-29T02:23:55.755Z,101819.75
2023-01-29T02:26:33.346Z,101822.44
2023-01-29T02:29:22.639Z,101815.53
2023-01-29T02:31:56.291Z,101812.72
2023-01-29T02:34:30.667Z,101810.06
2023-01-29T02:37:02.564Z,101804.38
2023-01-29T02:39:35.607Z,101804.19
2023-01-29T02:42:09.883Z,101789.00
2023-01-29T02:44:42.033Z,101791.59
2023-01-29T02:47:16.082Z,101783.66
2023-01-29T02:49:49.109Z,101787.44
2023-01-29T02:52:21.300Z,101785.75
2023-01-29T02:54:52.296Z,101776.75
2023-01-29T02:57:22.782Z,101777.47
2023-01-29T02:59:56.184Z,101774.78
2023-01-29T03:02:27.681Z,101769.53
2023-01-29T03:05:00.387Z,101764.00
2023-01-29T03:07:46.611Z,101763.16
2023-01-29T03:10:33.422Z,101753.69
2023-01-29T03:13:04.587Z,101758.84
2023-01-29T03:15:38.920Z,101754.63
2023-01-29T03:18:26.237Z,101750.22
2023-01-29T03:20:58.601Z,101750.16
2023-01-29T03:23:47.070Z,101748.16
2023-01-29T03:26:33.934Z,101747.22
2023-01-29T03:29:20.219Z,101746.25
2023-01-29T03:32:06.670Z,101750.47
2023-01-29T03:34:39.755Z,101744.00
2023-01-29T03:37:10.488Z,101744.72
2023-01-29T03:39:38.572Z,101752.53
2023-01-29T03:42:14.168Z,101745.38
2023-01-29T03:44:48.980Z,101746.16
2023-01-29T03:47:28.564Z,101740.72
2023-01-29T03:50:01.275Z,101735.47
2023-01-29T03:52:35.170Z,101732.63
2023-01-29T03:55:07.053Z,101729.84
2023-01-29T03:57:39.631Z,101718.28
2023-01-29T04:00:16.124Z,101707.44
2023-01-29T04:03:04.506Z,101700.75
2023-01-29T04:05:39.173Z,101683.94
2023-01-29T04:08:18.274Z,101686.63
2023-01-29T04:10:48.815Z,101692.56
2023-01-29T04:13:17.122Z,101682.53
2023-01-29T04:15:48.907Z,101688.56
2023-01-29T04:18:19.305Z,101689.22
2023-01-29T04:21:07.409Z,101686.44
2023-01-29T04:23:35.572Z,101683.78
2023-01-29T04:26:12.624Z,101685.50
2023-01-29T04:28:48.506Z,101679.22
2023-01-29T04:31:17.629Z,101669.88
2023-01-29T04:33:49.675Z,101679.03
2023-01-29T04:36:23.676Z,101680.38
2023-01-29T04:39:00.291Z,101688.19
2023-01-29T04:41:32.402Z,101681.06
2023-01-29T04:44:03.772Z,101671.19
2023-01-29T04:46:35.490Z,101675.50
2023-01-29T04:49:12.220Z,101672.75
2023-01-29T04:51:45.995Z,101669.97
2023-01-29T04:54:17.723Z,101672.53
2023-01-29T04:56:53.168Z,101672.75
2023-01-29T04:59:24.979Z,101669.88
2023-01-29T05:01:54.159Z,101674.38
2023-01-29T05:04:24.861Z,101673.38
2023-01-29T05:06:53.602Z,101677.69
2023-01-29T05:09:22.406Z,101666.06
2023-01-29T05:11:51.332Z,101671.31
2023-01-29T05:14:20.974Z,101664.03
2023-01-29T05:16:52.490Z,101658.97
2023-01-29T05:19:20.541Z,101653.16
2023-01-29T05:21:51.502Z,101647.81
2023-01-29T05:24:20.759Z,101651.13
2023-01-29T05:27:07.693Z,101643.22
2023-01-29T05:29:35.739Z,101637.97
2023-01-29T05:32:04.095Z,101632.31
2023-01-29T05:34:32.354Z,101630.53
2023-01-29T05:37:02.154Z,101635.97
2023-01-29T05:39:30.211Z,101634.13
2023-01-29T05:41:58.288Z,101630.53
2023-01-29T05:44:26.710Z,101633.94
2023-01-29T05:46:54.952Z,101633.84
2023-01-29T05:49:23.134Z,101630.13
2023-01-29T05:51:51.325Z,101624.56
2023-01-29T05:54:20.799Z,101616.34
2023-01-29T05:56:48.834Z,101612.81
2023-01-29T05:59:17.034Z,101614.72
2023-01-29T06:01:45.094Z,101618.81
2023-01-29T06:04:13.220Z,101613.28
2023-01-29T06:06:41.367Z,101616.72
2023-01-29T06:09:11.317Z,101613.09
2023-01-29T06:11:41.222Z,101617.28
2023-01-29T06:14:09.373Z,101607.72
2023-01-29T06:16:37.437Z,101611.25
2023-01-29T06:19:05.446Z,101609.34
2023-01-29T06:21:33.562Z,101602.72
2023-01-29T06:24:01.829Z,101609.91
2023-01-29T06:26:29.896Z,101604.53
2023-01-29T06:28:59.566Z,101595.25
2023-01-29T06:31:38.425Z,101601.56
2023-01-29T06:34:07.451Z,101597.94
2023-01-29T06:36:35.753Z,101602.25
2023-01-29T06:39:04.157Z,101599.47
2023-01-29T06:41:32.406Z,101603.75
2023-01-29T06:44:02.069Z,101600.97
2023-01-29T06:46:30.600Z,101595.63
2023-01-29T06:48:59.259Z,101599.34
2023-01-29T06:51:27.479Z,101603.25
2023-01-29T06:53:56.494Z,101604.19
2023-01-29T06:56:25.171Z,101607.44
2023-01-29T06:58:53.556Z,101597.69
2023-01-29T07:01:35.052Z,101603.03
2023-01-29T07:04:04.229Z,101596.72
2023-01-29T07:06:32.666Z,101600.19
2023-01-29T07:09:01.042Z,101595.97
2023-01-29T07:11:29.362Z,101588.69
2023-01-29T07:13:57.514Z,101587.53
2023-01-29T07:16:27.374Z,101585.59
2023-01-29T07:18:55.593Z,101594.41
2023-01-29T07:21:23.719Z,101581.97
2023-01-29T07:23:51.932Z,101570.50
2023-01-29T07:26:20.198Z,101561.72
2023-01-29T07:28:48.327Z,101567.63
2023-01-29T07:31:16.901Z,101558.66
2023-01-29T07:33:46.933Z,101574.03
2023-01-29T07:36:14.997Z,101565.91
2023-01-29T07:38:43.411Z,101557.88
2023-01-29T07:41:12.669Z,101562.47
2023-01-29T07:43:40.748Z,101559.91
2023-01-29T07:46:09.173Z,101561.81
2023-01-29T07:48:37.486Z,101546.16
2023-01-29T07:51:07.540Z,101548.94
2023-01-29T07:53:35.936Z,101547.34
2023-01-29T07:56:05.450Z,101553.75
2023-01-29T07:58:35.745Z,101548.38
2023-01-29T08:01:06.693Z,101565.41
2023-01-29T08:03:34.768Z,101554.50
2023-01-29T08:06:03.030Z,101559.09
2023-01-29T08:08:32.734Z,101567.13
2023-01-29T08:11:02.241Z,101567.22
2023-01-29T08:13:30.455Z,101562.94
2023-01-29T08:16:00.694Z,101564.44
2023-01-29T08:18:28.840Z,101570.00
2023-01-29T08:21:00.456Z,101568.97
2023-01-29T08:23:28.606Z,101562.81
2023-01-29T08:25:58.206Z,101566.19
2023-01-29T08:28:26.416Z,101565.97
2023-01-29T08:30:54.907Z,101562.63
2023-01-29T08:33:29.652Z,101560.72
2023-01-29T08:36:05.427Z,101568.75
2023-01-29T08:38:33.849Z,101569.50
2023-01-29T08:41:03.588Z,101573.06
2023-01-29T08:43:31.870Z,101581.72
2023-01-29T08:45:59.957Z,101587.06
2023-01-29T08:48:29.031Z,101591.38
2023-01-29T08:50:58.341Z,101585.38
2023-01-29T08:53:26.641Z,101590.53
2023-01-29T08:55:54.812Z,101581.63
2023-01-29T08:58:24.357Z,101579.81
2023-01-29T09:00:52.567Z,101586.03
2023-01-29T09:03:20.788Z,101580.66
2023-01-29T09:05:48.911Z,101578.56
2023-01-29T09:08:16.999Z,101579.41
2023-01-29T09:10:44.981Z,101582.06
2023-01-29T09:13:13.032Z,101584.53
2023-01-29T09:15:42.681Z,101592.09
2023-01-29T09:18:10.947Z,101591.22
2023-01-29T09:20:39.063Z,101599.13
2023-01-29T09:23:07.402Z,101599.44
2023-01-29T09:25:35.903Z,101604.38
2023-01-29T09:28:04.106Z,101597.34
2023-01-29T09:30:33.466Z,101593.38
2023-01-29T09:33:03.039Z,101595.09
2023-01-29T09:35:31.180Z,101592.31
2023-01-29T09:37:59.440Z,101587.41
2023-01-29T09:40:31.956Z,101590.28
2023-01-29T09:43:03.138Z,101584.81
2023-01-29T09:45:31.764Z,101587.41
2023-01-29T09:48:01.628Z,101579.69
2023-01-29T09:50:34.114Z,101580.03
2023-01-29T09:53:04.827Z,101578.53
2023-01-29T09:55:36.611Z,101580.88
2023-01-29T09:58:06.430Z,101569.97
2023-01-29T10:00:38.974Z,101580.47
2023-01-29T10:03:18.940Z,101578.22
2023-01-29T10:05:57.051Z,101570.06
2023-01-29T10:08:34.086Z,101567.94
2023-01-29T10:11:05.728Z,101560.53
2023-01-29T10:13:40.774Z,101563.31
2023-01-29T10:16:16.442Z,101569.63
2023-01-29T10:18:57.075Z,101568.06
2023-01-29T10:21:40.088Z,101564.69
2023-01-29T10:24:18.218Z,101564.25
2023-01-29T10:26:46.589Z,101559.31
2023-01-29T10:29:17.352Z,101559.31
2023-01-29T10:31:48.256Z,101559.75
2023-01-29T10:34:20.493Z,101556.28
2023-01-29T10:36:49.723Z,101549.84
2023-01-29T10:39:20.678Z,101556.25
2023-01-29T10:42:03.564Z,101550.22
2023-01-29T10:44:39.587Z,101556.00
2023-01-29T10:47:30.389Z,101558.00
2023-01-29T10:50:05.685Z,101552.28
2023-01-29T10:52:37.865Z,101551.50
2023-01-29T10:55:16.896Z,101548.13
2023-01-29T10:57:56.600Z,101548.56
2023-01-29T11:00:26.896Z,101542.41
2023-01-29T11:02:55.097Z,101543.41
2023-01-29T11:05:26.941Z,101541.59
2023-01-29T11:08:02.249Z,101539.66
2023-01-29T11:10:33.840Z,101542.59
2023-01-29T11:13:02.561Z,101537.84
2023-01-29T11:15:33.475Z,101532.09
2023-01-29T11:18:10.750Z,101535.75
2023-01-29T11:20:38.781Z,101529.41
2023-01-29T11:23:07.763Z,101515.72
2023-01-29T11:25:37.841Z,101515.47
2023-01-29T11:28:07.539Z,101514.25
2023-01-29T11:30:38.625Z,101511.81
2023-01-29T11:33:13.342Z,101510.09
2023-01-29T11:35:41.753Z,101500.22
2023-01-29T11:38:18.610Z,101497.41
2023-01-29T11:40:48.874Z,101486.88
2023-01-29T11:43:21.527Z,101492.72
2023-01-29T11:45:51.807Z,101492.47
2023-01-29T11:48:21.166Z,101477.94
2023-01-29T11:50:53.920Z,101477.81
2023-01-29T11:53:28.301Z,101468.06
2023-01-29T11:55:57.901Z,101467.69
2023-01-29T11:58:28.799Z,101459.97
2023-01-29T12:00:58.775Z,101445.06
2023-01-29T12:03:32.093Z,101448.22
2023-01-29T12:06:02.319Z,101444.31
2023-01-29T12:08:34.902Z,101433.28
2023-01-29T12:11:11.285Z,101427.06
2023-01-29T12:13:40.992Z,101423.00
2023-01-29T12:16:16.990Z,101424.34
2023-01-29T12:18:47.888Z,101419.28
2023-01-29T12:21:19.316Z,101420.75
2023-01-29T12:23:51.429Z,101409.25
2023-01-29T12:26:25.806Z,101395.66
2023-01-29T12:28:59.002Z,101395.00
2023-01-29T12:31:30.534Z,101387.88
2023-01-29T12:34:02.900Z,101381.63
2023-01-29T12:36:34.043Z,101379.00
2023-01-29T12:39:02.448Z,101374.09
2023-01-29T12:41:36.287Z,101368.72
2023-01-29T12:44:06.941Z,101365.94
2023-01-29T12:46:38.798Z,101363.44
2023-01-29T12:49:12.240Z,101358.84
2023-01-29T12:51:43.772Z,101363.88
2023-01-29T12:54:13.529Z,101367.34
2023-01-29T12:56:47.226Z,101358.06
2023-01-29T12:59:19.363Z,101351.56
2023-01-29T13:01:50.748Z,101349.34
2023-01-29T13:04:20.965Z,101335.47
2023-01-29T13:06:52.734Z,101329.53
2023-01-29T13:09:22.526Z,101327.81
2023-01-29T13:11:54.795Z,101315.63
2023-01-29T13:14:24.621Z,101313.91
2023-01-29T13:16:55.769Z,101301.00
2023-01-29T13:19:27.519Z,101292.31
2023-01-29T13:21:56.599Z,101297.56
2023-01-29T13:24:25.871Z,101280.78
2023-01-29T13:26:55.456Z,101273.06
2023-01-29T13:29:24.538Z,101262.97
2023-01-29T13:31:54.041Z,101257.19
2023-01-29T13:34:24.309Z,101250.31
2023-01-29T13:36:53.599Z,101253.88
2023-01-29T13:39:25.127Z,101259.56
2023-01-29T13:41:53.926Z,101244.63
2023-01-29T13:44:25.398Z,101249.56
2023-01-29T13:46:56.364Z,101232.38
2023-01-29T13:49:31.127Z,101226.66
2023-01-29T13:52:00.117Z,101211.75
2023-01-29T13:54:28.550Z,101200.53
2023-01-29T13:57:01.118Z,101197.81
2023-01-29T13:59:48.363Z,101196.94
2023-01-29T14:02:25.906Z,101178.03
2023-01-29T14:05:14.308Z,101159.88
2023-01-29T14:07:52.194Z,101157.88
2023-01-29T14:10:21.545Z,101153.72
2023-01-29T14:12:51.236Z,101150.03
2023-01-29T14:15:27.140Z,101146.28
2023-01-29T14:17:59.858Z,101146.03
2023-01-29T14:20:44.596Z,101136.09
2023-01-29T14:23:21.881Z,101104.78
2023-01-29T14:25:50.131Z,101090.94
2023-01-29T14:28:22.699Z,101082.00
2023-01-29T14:30:51.894Z,101070.94
2023-01-29T14:33:29.730Z,101077.75
2023-01-29T14:35:59.347Z,101063.59
2023-01-29T14:38:28.661Z,101051.94
2023-01-29T14:41:09.044Z,101057.91
2023-01-29T14:43:37.124Z,101069.69
2023-01-29T14:46:23.115Z,101066.16
2023-01-29T14:48:53.423Z,101067.88
2023-01-29T14:51:21.891Z,101089.38
2023-01-29T14:53:53.074Z,101092.44
2023-01-29T14:56:26.180Z,101094.06
2023-01-29T14:58:57.233Z,101099.22
2023-01-29T15:01:27.949Z,101090.72
2023-01-29T15:04:01.591Z,101097.66
2023-01-29T15:06:32.114Z,101109.16
2023-01-29T15:09:06.069Z,101103.75
2023-01-29T15:11:38.285Z,101112.28
2023-01-29T15:14:24.237Z,101091.63
2023-01-29T15:17:18.300Z,101089.56
2023-01-29T15:19:49.205Z,101078.63
2023-01-29T15:22:18.604Z,101064.44
2023-01-29T15:24:48.025Z,101071.97
2023-01-29T15:27:17.756Z,101064.63
2023-01-29T15:29:48.750Z,101074.00
2023-01-29T15:32:20.803Z,101082.06
2023-01-29T15:34:50.921Z,101090.91
2023-01-29T15:37:26.732Z,101108.94
2023-01-29T15:39:55.185Z,101108.94
2023-01-29T15:42:25.877Z,101114.38
2023-01-29T15:44:55.656Z,101124.25
2023-01-29T15:47:26.899Z,101128.03
2023-01-29T15:49:57.473Z,101126.56
2023-01-29T15:52:28.252Z,101128.31
2023-01-29T15:54:57.925Z,101127.31
2023-01-29T15:57:29.543Z,101118.66
2023-01-29T15:59:59.109Z,101119.22
2023-01-29T16:02:34.442Z,101113.81
2023-01-29T16:05:05.231Z,101113.84
2023-01-29T16:07:34.161Z,101121.81
2023-01-29T16:10:02.551Z,101126.63
2023-01-29T16:12:30.640Z,101115.25
2023-01-29T16:14:58.787Z,101118.25
2023-01-29T16:17:27.589Z,101105.47
2023-01-29T16:19:59.562Z,101112.38
2023-01-29T16:22:30.608Z,101094.25
2023-01-29T16:24:59.987Z,101075.78
2023-01-29T16:27:28.110Z,101082.03
2023-01-29T16:29:56.422Z,101064.44
2023-01-29T16:32:24.629Z,101055.06
2023-01-29T16:34:57.572Z,101060.31
2023-01-29T16:37:27.420Z,101062.31
2023-01-29T16:39:57.312Z,101048.59
2023-01-29T16:42:30.024Z,101042.22
2023-01-29T16:44:59.982Z,101045.66
2023-01-29T16:47:29.898Z,101044.69
2023-01-29T16:49:59.050Z,101038.28
2023-01-29T16:52:28.870Z,101033.91
2023-01-29T16:55:02.843Z,101040.97
2023-01-29T16:57:33.838Z,101048.91
2023-01-29T17:00:03.430Z,101055.56
2023-01-29T17:02:33.614Z,101056.47
2023-01-29T17:05:03.569Z,101052.47
2023-01-29T17:07:32.904Z,101053.91
2023-01-29T17:10:03.141Z,101051.75
2023-01-29T17:12:36.255Z,101041.84
2023-01-29T17:15:06.722Z,101044.78
2023-01-29T17:17:36.328Z,101040.97
2023-01-29T17:20:14.152Z,101036.69
2023-01-29T17:22:42.224Z,101042.94
2023-01-29T17:25:14.270Z,101040.94
2023-01-29T17:27:42.868Z,101055.16
2023-01-29T17:30:15.426Z,101058.28
2023-01-29T17:32:44.995Z,101059.13
2023-01-29T17:35:16.610Z,101039.44
2023-01-29T17:37:45.861Z,101033.03
2023-01-29T17:40:23.091Z,101029.88
2023-01-29T17:42:51.212Z,101019.09
2023-01-29T17:45:19.611Z,101025.06
2023-01-29T17:47:48.126Z,101026.19
2023-01-29T17:50:20.226Z,101015.69
2023-01-29T17:52:48.288Z,101027.78
2023-01-29T17:55:16.798Z,101019.69
2023-01-29T17:57:46.782Z,101030.47
2023-01-29T18:00:17.625Z,101027.91
2023-01-29T18:02:45.813Z,101029.03
2023-01-29T18:05:14.858Z,101033.28
2023-01-29T18:07:44.575Z,101039.00
2023-01-29T18:10:14.323Z,101046.66
2023-01-29T18:12:42.427Z,101043.13
2023-01-29T18:15:13.157Z,101057.75
2023-01-29T18:17:41.977Z,101049.34
2023-01-29T18:20:18.295Z,101043.13
2023-01-29T18:22:46.911Z,101052.94
2023-01-29T18:25:15.563Z,101062.84
2023-01-29T18:27:44.081Z,101075.63
2023-01-29T18:30:14.140Z,101075.22
2023-01-29T18:32:42.258Z,101079.31
2023-01-29T18:35:10.782Z,101087.84
2023-01-29T18:37:38.862Z,101082.31
2023-01-29T18:40:07.929Z,101085.16
2023-01-29T18:42:36.515Z,101082.88
2023-01-29T18:45:04.886Z,101087.28
2023-01-29T18:47:34.386Z,101085.88
2023-01-29T18:50:02.686Z,101096.66
2023-01-29T18:52:31.164Z,101086.00
2023-01-29T18:55:01.138Z,101090.28
2023-01-29T18:58:26.938Z,101095.38
2023-01-29T19:00:17.825Z,101077.78
2023-01-29T19:02:47.729Z,101079.34
2023-01-29T19:05:17.038Z,101074.78
2023-01-29T19:07:45.605Z,101072.09
2023-01-29T19:10:15.843Z,101070.94
2023-01-29T19:12:44.183Z,101074.09
2023-01-29T19:15:12.608Z,101082.19
2023-01-29T19:17:40.982Z,101083.59
2023-01-29T19:20:12.529Z,101086.00
2023-01-29T19:22:40.901Z,101088.84
2023-01-29T19:25:09.484Z,101072.22
2023-01-29T19:27:37.977Z,101086.97
2023-01-29T19:30:06.781Z,101078.50
2023-01-29T19:32:34.914Z,101077.31
2023-01-29T19:35:03.269Z,101074.78
2023-01-29T19:37:32.979Z,101088.84
2023-01-29T19:40:00.940Z,101073.09
2023-01-29T19:42:29.445Z,101077.63
2023-01-29T19:44:57.642Z,101077.63
2023-01-29T19:47:26.824Z,101075.34
2023-01-29T19:49:55.291Z,101078.34
2023-01-29T19:52:50.656Z,101083.28
2023-01-29T19:55:21.405Z,101087.13
2023-01-29T19:57:49.741Z,101092.94
2023-01-29T20:00:19.589Z,101102.72
2023-01-29T20:02:47.724Z,101112.53
2023-01-29T20:05:18.578Z,101102.72
2023-01-29T20:07:46.987Z,101111.84
2023-01-29T20:10:17.461Z,101113.50
2023-01-29T20:12:48.217Z,101113.25
2023-01-29T20:15:16.757Z,101115.50
2023-01-29T20:17:45.826Z,101122.34
2023-01-29T20:20:14.869Z,101128.72
2023-01-29T20:22:43.180Z,101127.56
2023-01-29T20:25:14.205Z,101141.06
2023-01-29T20:27:43.367Z,101136.13
2023-01-29T20:30:14.210Z,101140.69
2023-01-29T20:32:42.482Z,101146.91
2023-01-29T20:35:11.111Z,101153.72
2023-01-29T20:37:39.135Z,101142.34
2023-01-29T20:40:08.224Z,101144.34
2023-01-29T20:42:36.511Z,101149.44
2023-01-29T20:45:06.203Z,101144.94
2023-01-29T20:47:35.976Z,101152.38
2023-01-29T20:50:08.675Z,101167.16
2023-01-29T20:52:37.131Z,101164.19
2023-01-29T20:55:07.435Z,101163.19
2023-01-29T20:57:35.960Z,101156.34
2023-01-29T21:00:04.234Z,101154.44
2023-01-29T21:02:32.727Z,101154.72
2023-01-29T21:05:02.642Z,101157.88
2023-01-29T21:07:30.842Z,101172.31
2023-01-29T21:09:58.971Z,101166.06
2023-01-29T21:12:26.997Z,101168.75
2023-01-29T21:14:55.088Z,101174.53
2023-01-29T21:17:23.412Z,101179.50
2023-01-29T21:19:51.645Z,101181.88
2023-01-29T21:22:21.208Z,101165.69
2023-01-29T21:24:49.267Z,101174.22
2023-01-29T21:27:17.562Z,101172.19
2023-01-29T21:29:45.678Z,101170.50
2023-01-29T21:32:14.505Z,101175.03
2023-01-29T21:34:42.716Z,101173.59
2023-01-29T21:37:10.833Z,101168.59
2023-01-29T21:39:40.369Z,101175.25
2023-01-29T21:42:25.637Z,101175.19
2023-01-29T21:44:53.688Z,101170.94
2023-01-29T21:47:22.387Z,101171.72
2023-01-29T21:49:50.424Z,101155.78
2023-01-29T21:52:18.494Z,101157.19
2023-01-29T21:54:49.139Z,101165.41
2023-01-29T21:57:17.729Z,101159.47
2023-01-29T21:59:46.948Z,101152.91
2023-01-29T22:02:22.107Z,101160.06
2023-01-29T22:04:52.449Z,101155.69
2023-01-29T22:07:20.752Z,101159.88
2023-01-29T22:09:51.437Z,101168.25
2023-01-29T22:12:20.049Z,101176.81
2023-01-29T22:14:48.566Z,101180.25
2023-01-29T22:17:19.667Z,101187.09
2023-01-29T22:19:48.077Z,101194.66
2023-01-29T22:22:17.124Z,101195.66
2023-01-29T22:24:46.734Z,101212.38
2023-01-29T22:27:16.730Z,101207.38
2023-01-29T22:29:44.957Z,101222.03
2023-01-29T22:32:13.386Z,101230.09
2023-01-29T22:34:41.795Z,101232.41
2023-01-29T22:37:10.004Z,101250.38
2023-01-29T22:39:38.460Z,101248.44
2023-01-29T22:42:06.665Z,101252.09
2023-01-29T22:44:36.602Z,101243.63
2023-01-29T22:47:04.901Z,101247.41
2023-01-29T22:49:33.203Z,101240.09
2023-01-29T22:52:13.872Z,101241.81
2023-01-29T22:54:43.454Z,101224.81
2023-01-29T22:57:12.465Z,101221.16
2023-01-29T22:59:42.610Z,101220.78
2023-01-29T23:02:10.792Z,101223.25
2023-01-29T23:04:38.911Z,101208.09
2023-01-29T23:07:07.149Z,101217.25
2023-01-29T23:09:35.196Z,101214.69
2023-01-29T23:12:03.379Z,101224.19
2023-01-29T23:14:32.001Z,101225.66
2023-01-29T23:17:01.705Z,101239.66
2023-01-29T23:19:30.656Z,101246.34
2023-01-29T23:21:58.636Z,101240.50
2023-01-29T23:24:26.814Z,101237.06
2023-01-29T23:27:12.653Z,101245.75
2023-01-29T23:29:41.394Z,101261.25
2023-01-29T23:32:11.211Z,101250.03
2023-01-29T23:34:39.569Z,101248.31
2023-01-29T23:37:07.665Z,101248.31
2023-01-29T23:39:35.744Z,101255.63
2023-01-29T23:42:03.687Z,101266.59
2023-01-29T23:44:31.882Z,101266.72
2023-01-29T23:47:00.414Z,101268.81
2023-01-29T23:49:29.987Z,101270.00
2023-01-29T23:51:58.384Z,101273.41
2023-01-29T23:54:26.718Z,101274.88
2023-01-29T23:56:54.905Z,101273.66
2023-01-29T23:59:23.078Z,101279.88
